createdAt,value
2022-12-27T00:01:16.289Z,3.33
2022-12-27T00:03:45.062Z,3.40
2022-12-27T00:06:23.576Z,3.60
2022-12-27T00:08:52.239Z,3.50
2022-12-27T00:11:21.636Z,3.77
2022-12-27T00:13:48.721Z,2.30
2022-12-27T00:16:17.988Z,2.63
2022-12-27T00:18:45.572Z,2.50
2022-12-27T00:21:13.741Z,2.37
2022-12-27T00:23:43.478Z,2.03
2022-12-27T00:26:32.442Z,1.67
2022-12-27T00:29:02.848Z,2.33
2022-12-27T00:31:30.734Z,2.50
2022-12-27T00:33:59.639Z,3.30
2022-12-27T00:36:27.739Z,2.13
2022-12-27T00:38:56.193Z,2.40
2022-12-27T00:41:24.344Z,2.70
2022-12-27T00:43:53.766Z,2.27
2022-12-27T00:46:20.269Z,2.50
2022-12-27T00:48:48.792Z,2.33
2022-12-27T00:51:25.701Z,1.90
2022-12-27T00:53:53.317Z,1.97
2022-12-27T00:56:22.541Z,1.83
2022-12-27T00:58:53.638Z,2.07
2022-12-27T01:01:21.889Z,2.50
2022-12-27T01:03:49.831Z,1.80
2022-12-27T01:06:27.457Z,1.90
2022-12-27T01:08:57.199Z,1.30
2022-12-27T01:11:24.716Z,1.40
2022-12-27T01:13:58.385Z,1.83
2022-12-27T01:16:26.556Z,1.83
2022-12-27T01:18:53.976Z,1.97
2022-12-27T01:21:22.749Z,1.93
2022-12-27T01:23:49.988Z,2.23
2022-12-27T01:26:22.191Z,1.60
2022-12-27T01:28:49.308Z,1.60
2022-12-27T01:31:21.673Z,1.40
2022-12-27T01:33:49.163Z,1.67
2022-12-27T01:36:18.843Z,1.83
2022-12-27T01:38:48.259Z,1.57
2022-12-27T01:41:49.075Z,1.07
2022-12-27T01:44:40.230Z,1.50
2022-12-27T01:47:12.659Z,1.23
2022-12-27T01:49:47.024Z,1.67
2022-12-27T01:52:13.777Z,2.30
2022-12-27T01:54:40.752Z,1.20
2022-12-27T01:57:07.641Z,1.63
2022-12-27T01:59:34.412Z,1.50
2022-12-27T02:02:01.603Z,9.03
2022-12-27T02:04:29.340Z,1.23
2022-12-27T02:06:55.957Z,1.40
2022-12-27T02:09:34.397Z,1.67
2022-12-27T02:12:02.249Z,1.50
2022-12-27T02:14:33.462Z,2.10
2022-12-27T02:17:06.609Z,2.07
2022-12-27T02:19:42.141Z,1.33
2022-12-27T02:22:20.835Z,1.63
2022-12-27T02:25:03.611Z,1.80
2022-12-27T02:27:33.167Z,1.60
2022-12-27T02:30:06.072Z,1.50
2022-12-27T02:32:38.687Z,1.57
2022-12-27T02:35:10.365Z,1.57
2022-12-27T02:37:43.661Z,1.90
2022-12-27T02:40:30.952Z,1.93
2022-12-27T02:43:16.402Z,1.40
2022-12-27T02:46:07.909Z,1.47
2022-12-27T02:48:53.190Z,1.53
2022-12-27T02:51:57.717Z,1.57
2022-12-27T02:55:02.636Z,1.40
2022-12-27T02:57:48.829Z,1.27
2022-12-27T03:00:36.614Z,1.73
2022-12-27T03:03:28.696Z,1.23
2022-12-27T03:06:32.521Z,1.53
2022-12-27T03:09:55.517Z,1.60
2022-12-27T03:12:47.721Z,1.30
2022-12-27T03:15:55.932Z,1.40
2022-12-27T03:18:49.969Z,1.53
2022-12-27T03:21:41.663Z,1.47
2022-12-27T03:24:26.954Z,1.33
2022-12-27T03:26:54.832Z,1.20
2022-12-27T03:29:40.419Z,1.67
2022-12-27T03:32:29.615Z,1.60
2022-12-27T03:35:04.979Z,1.60
2022-12-27T03:37:54.596Z,1.73
2022-12-27T03:40:31.112Z,1.40
2022-12-27T03:43:11.422Z,1.60
2022-12-27T03:46:23.988Z,2.00
2022-12-27T03:48:57.905Z,2.10
2022-12-27T03:51:26.546Z,1.60
2022-12-27T03:53:57.132Z,2.13
2022-12-27T03:56:26.122Z,2.30
2022-12-27T03:58:52.865Z,1.87
2022-12-27T04:01:20.085Z,2.13
2022-12-27T04:03:46.735Z,1.80
2022-12-27T04:06:13.325Z,2.07
2022-12-27T04:08:58.175Z,1.60
2022-12-27T04:11:43.550Z,1.90
2022-12-27T04:14:28.706Z,1.73
2022-12-27T04:17:13.499Z,1.50
2022-12-27T04:19:58.455Z,1.83
2022-12-27T04:22:43.295Z,1.43
2022-12-27T04:25:28.174Z,1.60
2022-12-27T04:28:13.142Z,2.27
2022-12-27T04:30:58.789Z,2.07
2022-12-27T04:33:43.945Z,1.80
2022-12-27T04:36:11.772Z,1.70
2022-12-27T04:38:38.299Z,2.27
2022-12-27T04:41:24.042Z,1.63
2022-12-27T04:44:09.310Z,2.10
2022-12-27T04:46:54.325Z,1.80
2022-12-27T04:49:42.315Z,2.10
2022-12-27T04:52:33.380Z,1.93
2022-12-27T04:55:01.798Z,1.77
2022-12-27T04:57:28.365Z,1.90
2022-12-27T05:00:15.065Z,2.27
2022-12-27T05:02:41.798Z,2.30
2022-12-27T05:05:09.239Z,2.20
2022-12-27T05:07:55.488Z,2.87
2022-12-27T05:10:40.975Z,2.10
2022-12-27T05:13:29.211Z,3.07
2022-12-27T05:15:56.014Z,2.00
2022-12-27T05:18:22.668Z,1.90
2022-12-27T05:20:49.721Z,2.03
2022-12-27T05:23:35.186Z,1.77
2022-12-27T05:26:01.719Z,2.00
2022-12-27T05:28:29.031Z,2.50
2022-12-27T05:31:01.620Z,2.10
2022-12-27T05:33:30.973Z,2.03
2022-12-27T05:36:00.837Z,1.90
2022-12-27T05:38:27.663Z,1.83
2022-12-27T05:40:59.102Z,2.00
2022-12-27T05:43:25.947Z,2.20
2022-12-27T05:45:52.543Z,2.10
2022-12-27T05:48:19.259Z,2.20
2022-12-27T05:50:46.053Z,2.13
2022-12-27T05:53:12.919Z,2.13
2022-12-27T05:55:39.729Z,2.33
2022-12-27T05:58:06.299Z,1.80
2022-12-27T06:00:33.067Z,1.90
2022-12-27T06:02:59.649Z,1.90
2022-12-27T06:05:26.325Z,1.90
2022-12-27T06:07:52.950Z,2.50
2022-12-27T06:10:19.671Z,1.87
2022-12-27T06:12:46.189Z,1.87
2022-12-27T06:15:12.748Z,2.27
2022-12-27T06:17:40.275Z,2.10
2022-12-27T06:20:07.247Z,2.27
2022-12-27T06:22:35.348Z,2.23
2022-12-27T06:25:01.939Z,2.50
2022-12-27T06:27:31.026Z,1.73
2022-12-27T06:30:01.132Z,1.87
2022-12-27T06:32:27.725Z,2.00
2022-12-27T06:34:56.001Z,2.43
2022-12-27T06:37:22.801Z,2.23
2022-12-27T06:39:49.734Z,2.10
2022-12-27T06:42:16.221Z,2.10
2022-12-27T06:44:43.313Z,1.67
2022-12-27T06:47:09.824Z,2.87
2022-12-27T06:49:36.885Z,2.40
2022-12-27T06:52:06.231Z,1.97
2022-12-27T06:54:32.834Z,1.90
2022-12-27T06:56:59.354Z,2.27
2022-12-27T06:59:27.273Z,3.10
2022-12-27T07:01:54.014Z,3.10
2022-12-27T07:04:20.823Z,4.13
2022-12-27T07:06:47.471Z,2.90
2022-12-27T07:09:14.040Z,2.27
2022-12-27T07:11:40.955Z,2.80
2022-12-27T07:14:09.315Z,3.27
2022-12-27T07:16:36.217Z,2.00
2022-12-27T07:19:02.983Z,2.17
2022-12-27T07:21:29.701Z,13.70
2022-12-27T07:23:57.343Z,3.00
2022-12-27T07:26:30.162Z,3.33
2022-12-27T07:29:00.100Z,8.03
2022-12-27T07:31:35.079Z,7.30
2022-12-27T07:34:04.439Z,7.37
2022-12-27T07:36:38.418Z,4.53
2022-12-27T07:39:06.242Z,3.70
2022-12-27T07:41:32.917Z,9.30
2022-12-27T07:43:59.626Z,4.53
2022-12-27T07:46:28.643Z,2.73
2022-12-27T07:48:56.777Z,3.10
2022-12-27T07:51:24.235Z,2.90
2022-12-27T07:53:53.843Z,3.57
2022-12-27T07:56:26.821Z,3.60
2022-12-27T07:58:55.346Z,4.07
2022-12-27T08:01:24.228Z,3.47
2022-12-27T08:03:51.606Z,3.30
2022-12-27T08:06:45.731Z,4.00
2022-12-27T08:09:15.597Z,3.80
2022-12-27T08:11:44.034Z,3.20
2022-12-27T08:14:11.232Z,3.67
2022-12-27T08:16:38.142Z,3.47
2022-12-27T08:19:08.674Z,3.37
2022-12-27T08:21:35.931Z,3.00
2022-12-27T08:24:02.633Z,3.57
2022-12-27T08:26:29.241Z,3.43
2022-12-27T08:28:56.323Z,3.57
2022-12-27T08:31:24.330Z,4.17
2022-12-27T08:33:58.297Z,3.90
2022-12-27T08:39:12.954Z,4.10
2022-12-27T08:41:39.690Z,4.20
2022-12-27T08:44:07.116Z,12.20
2022-12-27T08:46:33.854Z,6.80
2022-12-27T08:49:00.845Z,5.90
2022-12-27T08:51:35.963Z,5.53
2022-12-27T08:54:07.266Z,5.23
2022-12-27T08:56:34.462Z,5.97
2022-12-27T08:59:01.501Z,4.80
2022-12-27T09:01:29.197Z,6.87
2022-12-27T09:03:56.599Z,5.90
2022-12-27T09:06:24.662Z,5.87
2022-12-27T09:08:54.187Z,6.33
2022-12-27T09:11:24.754Z,5.83
2022-12-27T09:13:51.743Z,6.73
2022-12-27T09:16:23.763Z,5.60
2022-12-27T09:18:52.054Z,6.73
2022-12-27T09:21:20.187Z,6.20
2022-12-27T09:23:47.155Z,5.87
2022-12-27T09:26:23.199Z,6.00
2022-12-27T09:28:52.829Z,4.83
2022-12-27T09:31:20.781Z,5.47
2022-12-27T09:33:47.488Z,6.13
2022-12-27T09:36:20.349Z,6.13
2022-12-27T09:38:48.316Z,5.50
2022-12-27T09:42:45.861Z,5.03
2022-12-27T09:44:59.253Z,4.40
2022-12-27T09:47:34.449Z,4.60
2022-12-27T09:50:09.514Z,4.23
2022-12-27T09:52:37.349Z,4.80
2022-12-27T09:55:07.138Z,4.70
2022-12-27T09:57:40.864Z,4.73
2022-12-27T10:00:18.105Z,4.00
2022-12-27T10:02:48.062Z,4.67
2022-12-27T10:05:23.941Z,5.10
2022-12-27T10:08:23.691Z,4.27
2022-12-27T10:11:09.218Z,5.20
2022-12-27T10:13:50.356Z,4.63
2022-12-27T10:16:56.475Z,5.20
2022-12-27T10:19:29.948Z,5.60
2022-12-27T10:22:16.813Z,4.90
2022-12-27T10:24:56.412Z,4.80
2022-12-27T10:27:26.472Z,4.90
2022-12-27T10:29:58.072Z,4.87
2022-12-27T10:32:25.993Z,4.40
2022-12-27T10:35:01.055Z,6.00
2022-12-27T10:37:27.987Z,5.13
2022-12-27T10:39:56.299Z,5.23
2022-12-27T10:42:41.965Z,5.50
2022-12-27T10:45:27.927Z,5.40
2022-12-27T10:47:56.712Z,5.10
2022-12-27T10:50:26.089Z,4.20
2022-12-27T10:52:57.290Z,5.00
2022-12-27T10:55:39.344Z,5.13
2022-12-27T10:58:36.007Z,5.87
2022-12-27T11:01:03.023Z,7.20
2022-12-27T11:03:31.070Z,6.30
2022-12-27T11:06:07.272Z,6.00
2022-12-27T11:08:34.012Z,5.60
2022-12-27T11:11:24.048Z,5.90
2022-12-27T11:13:51.483Z,5.43
2022-12-27T11:16:31.568Z,5.17
2022-12-27T11:19:02.286Z,5.43
2022-12-27T11:21:29.827Z,4.80
2022-12-27T11:23:59.695Z,4.20
2022-12-27T11:26:53.749Z,4.17
2022-12-27T11:29:22.806Z,5.47
2022-12-27T11:31:52.780Z,4.40
2022-12-27T11:34:33.466Z,4.30
2022-12-27T11:37:15.926Z,4.40
2022-12-27T11:39:52.104Z,3.90
2022-12-27T11:42:33.705Z,3.30
2022-12-27T11:45:23.130Z,4.70
2022-12-27T11:48:08.517Z,3.13
2022-12-27T11:50:44.571Z,3.40
2022-12-27T11:53:37.889Z,4.23
2022-12-27T11:56:26.850Z,3.90
2022-12-27T11:59:16.781Z,4.00
2022-12-27T12:01:56.053Z,4.67
2022-12-27T12:04:37.170Z,4.47
2022-12-27T12:07:12.823Z,4.07
2022-12-27T12:09:51.816Z,3.73
2022-12-27T12:12:31.155Z,3.67
2022-12-27T12:15:07.159Z,4.00
2022-12-27T12:18:04.229Z,4.43
2022-12-27T12:21:02.109Z,5.23
2022-12-27T12:23:47.675Z,5.30
2022-12-27T12:26:25.522Z,4.73
2022-12-27T12:29:16.459Z,3.80
2022-12-27T12:31:50.052Z,3.33
2022-12-27T12:35:03.544Z,3.00
2022-12-27T12:38:04.129Z,3.33
2022-12-27T12:40:48.388Z,2.97
2022-12-27T12:43:37.835Z,3.00
2022-12-27T12:46:28.326Z,4.00
2022-12-27T12:49:20.009Z,4.40
2022-12-27T12:52:01.833Z,3.13
2022-12-27T12:54:37.036Z,3.70
2022-12-27T12:57:14.096Z,4.30
2022-12-27T12:59:54.513Z,3.43
2022-12-27T13:02:41.233Z,4.70
2022-12-27T13:05:19.276Z,4.40
2022-12-27T13:08:05.706Z,4.23
2022-12-27T13:11:15.022Z,3.57
2022-12-27T13:14:19.859Z,3.30
2022-12-27T13:16:55.584Z,2.97
2022-12-27T13:19:31.702Z,3.23
2022-12-27T13:22:25.213Z,3.73
2022-12-27T13:25:27.905Z,3.70
2022-12-27T13:28:16.158Z,4.60
2022-12-27T13:30:55.293Z,4.43
2022-12-27T13:33:49.316Z,4.43
2022-12-27T13:36:23.188Z,3.40
2022-12-27T13:39:08.603Z,2.97
2022-12-27T13:42:14.040Z,3.60
2022-12-27T13:44:44.761Z,3.67
2022-12-27T13:47:29.784Z,3.70
2022-12-27T13:50:20.557Z,3.90
2022-12-27T13:53:00.121Z,3.40
2022-12-27T13:55:45.501Z,3.30
2022-12-27T13:58:36.636Z,3.73
2022-12-27T14:01:30.940Z,3.57
2022-12-27T14:04:09.241Z,3.60
2022-12-27T14:06:42.286Z,3.70
2022-12-27T14:09:40.095Z,2.83
2022-12-27T14:12:07.384Z,3.07
2022-12-27T14:14:36.930Z,2.90
2022-12-27T14:17:17.735Z,2.87
2022-12-27T14:20:05.857Z,2.60
2022-12-27T14:23:08.529Z,3.43
2022-12-27T14:25:43.407Z,2.97
2022-12-27T14:28:10.115Z,2.87
2022-12-27T14:31:14.509Z,3.07
2022-12-27T14:34:07.733Z,3.33
2022-12-27T14:36:41.410Z,3.93
2022-12-27T14:39:26.510Z,3.80
2022-12-27T14:42:15.087Z,3.53
2022-12-27T14:45:13.032Z,5.30
2022-12-27T14:48:07.166Z,3.77
2022-12-27T14:50:37.752Z,2.97
2022-12-27T14:53:21.956Z,2.80
2022-12-27T14:56:17.321Z,2.63
2022-12-27T14:59:21.520Z,3.27
2022-12-27T15:02:22.149Z,4.60
2022-12-27T15:05:02.011Z,4.00
2022-12-27T15:07:56.689Z,3.47
2022-12-27T15:10:36.860Z,3.40
2022-12-27T15:13:13.971Z,4.00
2022-12-27T15:15:55.835Z,4.20
2022-12-27T15:18:51.025Z,3.63
2022-12-27T15:21:41.818Z,3.30
2022-12-27T15:24:23.765Z,3.87
2022-12-27T15:27:03.642Z,3.10
2022-12-27T15:29:51.990Z,3.30
2022-12-27T15:33:03.844Z,4.40
2022-12-27T15:35:55.079Z,4.10
2022-12-27T15:38:54.941Z,6.00
2022-12-27T15:41:55.352Z,6.40
2022-12-27T15:44:33.740Z,6.43
2022-12-27T15:47:20.969Z,6.20
2022-12-27T15:50:17.544Z,2.80
2022-12-27T15:53:05.766Z,4.40
2022-12-27T15:56:00.119Z,3.13
2022-12-27T15:58:27.194Z,3.30
2022-12-27T16:01:32.054Z,3.33
2022-12-27T16:04:38.123Z,5.30
2022-12-27T16:07:46.411Z,5.80
2022-12-27T16:10:35.802Z,4.67
2022-12-27T16:13:12.443Z,5.80
2022-12-27T16:15:47.574Z,6.17
2022-12-27T16:18:17.938Z,6.00
2022-12-27T16:21:09.656Z,7.20
2022-12-27T16:23:38.452Z,6.33
2022-12-27T16:26:17.297Z,5.87
2022-12-27T16:28:57.921Z,5.83
2022-12-27T16:31:27.329Z,5.33
2022-12-27T16:33:58.984Z,6.03
2022-12-27T16:36:31.254Z,6.00
2022-12-27T16:39:23.368Z,6.17
2022-12-27T16:41:50.389Z,5.07
2022-12-27T16:44:44.259Z,6.00
2022-12-27T16:47:37.759Z,6.20
2022-12-27T16:50:40.925Z,5.60
2022-12-27T16:54:03.424Z,7.00
2022-12-27T16:56:36.379Z,6.10
2022-12-27T16:59:02.996Z,7.50
2022-12-27T17:01:53.179Z,6.90
2022-12-27T17:04:58.356Z,6.93
2022-12-27T17:07:52.886Z,6.77
2022-12-27T17:10:30.330Z,9.00
2022-12-27T17:13:17.496Z,11.80
2022-12-27T17:16:09.730Z,9.27
2022-12-27T17:18:58.738Z,7.20
2022-12-27T17:21:30.839Z,6.37
2022-12-27T17:24:19.135Z,6.50
2022-12-27T17:27:07.769Z,6.70
2022-12-27T17:29:59.092Z,8.90
2022-12-27T17:32:49.303Z,7.50
2022-12-27T17:35:24.543Z,7.10
2022-12-27T17:38:13.526Z,6.47
2022-12-27T17:40:59.334Z,5.77
2022-12-27T17:44:27.698Z,6.10
2022-12-27T17:47:19.511Z,6.13
2022-12-27T17:49:48.594Z,6.90
2022-12-27T17:52:36.530Z,7.83
2022-12-27T17:55:42.678Z,6.07
2022-12-27T17:58:16.717Z,6.63
2022-12-27T18:00:58.187Z,5.23
2022-12-27T18:03:32.303Z,9.10
2022-12-27T18:06:00.377Z,9.13
2022-12-27T18:08:32.749Z,9.80
2022-12-27T18:11:01.050Z,9.90
2022-12-27T18:13:35.453Z,9.40
2022-12-27T18:16:25.087Z,7.30
2022-12-27T18:18:54.848Z,8.00
2022-12-27T18:21:27.903Z,7.00
2022-12-27T18:23:55.577Z,6.23
2022-12-27T18:26:38.595Z,7.33
2022-12-27T18:29:05.789Z,7.80
2022-12-27T18:31:43.315Z,7.80
2022-12-27T18:34:21.951Z,7.80
2022-12-27T18:36:52.808Z,10.00
2022-12-27T18:39:39.929Z,10.00
2022-12-27T18:42:38.692Z,5.47
2022-12-27T18:45:09.101Z,4.57
2022-12-27T18:47:40.277Z,4.10
2022-12-27T18:50:17.255Z,3.97
2022-12-27T18:52:52.891Z,3.87
2022-12-27T18:55:27.810Z,4.70
2022-12-27T18:58:20.840Z,4.70
2022-12-27T19:00:59.040Z,4.47
2022-12-27T19:03:27.600Z,4.90
2022-12-27T19:06:03.777Z,5.00
2022-12-27T19:08:37.324Z,3.80
2022-12-27T19:11:06.842Z,3.70
2022-12-27T19:13:48.443Z,3.80
2022-12-27T19:16:27.121Z,4.50
2022-12-27T19:18:55.857Z,6.23
2022-12-27T19:21:36.895Z,5.53
2022-12-27T19:24:24.053Z,7.30
2022-12-27T19:26:51.673Z,6.37
2022-12-27T19:29:28.494Z,4.53
2022-12-27T19:32:08.139Z,4.47
2022-12-27T19:34:51.927Z,3.93
2022-12-27T19:37:19.226Z,4.90
2022-12-27T19:39:47.672Z,4.27
2022-12-27T19:42:31.700Z,4.23
2022-12-27T19:44:59.530Z,4.80
2022-12-27T19:47:28.028Z,3.80
2022-12-27T19:49:59.732Z,4.07
2022-12-27T19:52:28.254Z,3.50
2022-12-27T19:55:04.938Z,3.00
2022-12-27T19:57:33.604Z,3.37
2022-12-27T20:00:02.275Z,3.20
2022-12-27T20:02:30.775Z,3.90
2022-12-27T20:04:59.312Z,3.07
2022-12-27T20:07:28.467Z,3.10
2022-12-27T20:09:55.334Z,3.40
2022-12-27T20:12:22.865Z,2.87
2022-12-27T20:14:49.626Z,3.90
2022-12-27T20:17:16.589Z,3.73
2022-12-27T20:19:43.654Z,3.60
2022-12-27T20:22:11.893Z,2.50
2022-12-27T20:24:39.170Z,3.23
2022-12-27T20:27:08.591Z,3.30
2022-12-27T20:29:35.611Z,3.03
2022-12-27T20:32:08.170Z,2.93
2022-12-27T20:34:37.191Z,2.80
2022-12-27T20:37:04.408Z,3.10
2022-12-27T20:39:31.493Z,2.93
2022-12-27T20:42:00.005Z,2.60
2022-12-27T20:44:27.913Z,2.80
2022-12-27T20:46:55.260Z,3.03
2022-12-27T20:49:23.645Z,3.43
2022-12-27T20:51:52.130Z,3.20
2022-12-27T20:54:21.470Z,3.10
2022-12-27T20:56:49.830Z,2.87
2022-12-27T20:59:18.761Z,2.93
2022-12-27T21:01:46.169Z,3.30
2022-12-27T21:04:16.126Z,3.53
2022-12-27T21:06:45.541Z,3.37
2022-12-27T21:09:14.925Z,3.13
2022-12-27T21:11:41.887Z,3.33
2022-12-27T21:14:11.019Z,3.60
2022-12-27T21:16:39.091Z,2.93
2022-12-27T21:19:07.141Z,3.60
2022-12-27T21:21:35.845Z,3.60
2022-12-27T21:24:04.110Z,3.30
2022-12-27T21:26:33.771Z,3.07
2022-12-27T21:29:03.240Z,3.63
2022-12-27T21:31:30.388Z,3.87
2022-12-27T21:34:03.273Z,3.70
2022-12-27T21:36:33.319Z,3.47
2022-12-27T21:39:06.506Z,3.60
2022-12-27T21:41:35.905Z,3.30
2022-12-27T21:44:04.997Z,3.20
2022-12-27T21:46:34.186Z,3.37
2022-12-27T21:49:09.523Z,3.20
2022-12-27T21:51:37.253Z,3.60
2022-12-27T21:54:05.648Z,3.80
2022-12-27T21:56:33.649Z,3.23
2022-12-27T21:59:08.201Z,3.00
2022-12-27T22:01:51.588Z,2.80
2022-12-27T22:04:21.321Z,2.40
2022-12-27T22:06:49.292Z,3.20
2022-12-27T22:09:16.857Z,3.60
2022-12-27T22:11:44.103Z,3.87
2022-12-27T22:14:11.140Z,3.13
2022-12-27T22:16:40.534Z,2.90
2022-12-27T22:19:09.376Z,2.93
2022-12-27T22:21:36.640Z,5.60
2022-12-27T22:24:06.339Z,4.67
2022-12-27T22:26:37.600Z,3.90
2022-12-27T22:29:05.359Z,3.27
2022-12-27T22:31:35.395Z,2.90
2022-12-27T22:34:03.494Z,2.90
2022-12-27T22:36:30.656Z,2.40
2022-12-27T22:38:59.006Z,2.50
2022-12-27T22:41:29.009Z,2.30
2022-12-27T22:44:04.480Z,2.73
2022-12-27T22:46:58.705Z,4.53
2022-12-27T22:49:22.786Z,3.47
2022-12-27T22:51:49.493Z,3.27
2022-12-27T22:54:16.051Z,3.40
2022-12-27T22:56:45.307Z,3.30
2022-12-27T22:59:14.105Z,4.17
2022-12-27T23:01:44.326Z,4.27
2022-12-27T23:04:12.568Z,3.90
2022-12-27T23:06:39.952Z,3.47
2022-12-27T23:09:07.430Z,3.53
2022-12-27T23:11:37.201Z,3.30
2022-12-27T23:14:06.468Z,2.87
2022-12-27T23:16:37.561Z,3.03
2022-12-27T23:19:08.028Z,2.57
2022-12-27T23:21:35.507Z,3.90
2022-12-27T23:24:03.422Z,2.80
2022-12-27T23:26:30.526Z,3.77
2022-12-27T23:28:58.279Z,2.73
2022-12-27T23:31:25.987Z,2.90
2022-12-27T23:33:53.339Z,2.50
2022-12-27T23:36:21.895Z,2.37
2022-12-27T23:38:49.969Z,2.80
2022-12-27T23:41:20.462Z,2.90
2022-12-27T23:43:56.221Z,2.10
2022-12-27T23:46:28.360Z,2.30
2022-12-27T23:49:03.948Z,2.63
2022-12-27T23:51:35.290Z,2.30
2022-12-27T23:54:02.030Z,2.77
2022-12-27T23:56:30.772Z,2.57
2022-12-27T23:59:00.908Z,2.30
